createdAt,value
2023-04-01T00:00:58.840Z,1.33
2023-04-01T00:03:26.746Z,1.43
2023-04-01T00:05:55.004Z,1.23
2023-04-01T00:08:21.806Z,1.53
2023-04-01T00:10:48.689Z,1.53
2023-04-01T00:13:15.857Z,1.70
2023-04-01T00:15:43.163Z,1.10
2023-04-01T00:18:10.271Z,1.83
2023-04-01T00:20:37.063Z,1.50
2023-04-01T00:23:03.990Z,3.43
2023-04-01T00:25:31.185Z,1.60
2023-04-01T00:27:58.182Z,1.70
2023-04-01T00:30:25.012Z,1.70
2023-04-01T00:32:54.870Z,1.90
2023-04-01T00:35:21.773Z,1.90
2023-04-01T00:37:48.531Z,2.40
2023-04-01T00:40:35.568Z,1.47
2023-04-01T00:43:02.467Z,1.73
2023-04-01T00:45:32.362Z,1.50
2023-04-01T00:48:01.050Z,1.70
2023-04-01T00:50:27.948Z,1.60
2023-04-01T00:52:54.706Z,1.57
2023-04-01T00:55:21.764Z,1.93
2023-04-01T00:57:48.496Z,2.00
2023-04-01T01:00:16.067Z,2.17
2023-04-01T01:02:44.020Z,2.00
2023-04-01T01:05:18.489Z,1.87
2023-04-01T01:08:16.942Z,2.13
2023-04-01T01:10:44.012Z,2.40
2023-04-01T01:13:20.056Z,2.03
2023-04-01T01:15:58.739Z,2.10
2023-04-01T01:18:42.397Z,2.80
2023-04-01T01:21:21.050Z,2.60
2023-04-01T01:24:11.989Z,2.43
2023-04-01T01:27:11.537Z,2.27
2023-04-01T01:30:00.563Z,2.30
2023-04-01T01:32:52.242Z,2.17
2023-04-01T01:35:23.619Z,2.43
2023-04-01T01:37:53.620Z,1.93
2023-04-01T01:40:20.483Z,2.43
2023-04-01T01:42:50.563Z,1.60
2023-04-01T01:45:19.288Z,1.70
2023-04-01T01:47:46.405Z,1.63
2023-04-01T01:50:13.649Z,2.43
2023-04-01T01:52:40.475Z,2.20
2023-04-01T01:55:44.322Z,2.17
2023-04-01T01:58:15.581Z,2.70
2023-04-01T02:00:44.417Z,2.80
2023-04-01T02:03:11.919Z,2.93
2023-04-01T02:05:38.840Z,3.07
2023-04-01T02:08:17.503Z,3.03
2023-04-01T02:10:47.290Z,1.90
2023-04-01T02:13:48.707Z,2.27
2023-04-01T02:16:37.736Z,2.63
2023-04-01T02:19:08.437Z,2.20
2023-04-01T02:21:35.451Z,2.13
2023-04-01T02:24:03.315Z,1.73
2023-04-01T02:26:30.104Z,2.10
2023-04-01T02:28:56.839Z,1.70
2023-04-01T02:31:23.714Z,2.50
2023-04-01T02:33:50.620Z,1.97
2023-04-01T02:36:17.607Z,2.00
2023-04-01T02:38:45.624Z,2.47
2023-04-01T02:41:12.437Z,1.70
2023-04-01T02:43:39.243Z,1.93
2023-04-01T02:46:07.156Z,1.80
2023-04-01T02:48:33.914Z,2.10
2023-04-01T02:51:00.711Z,1.83
2023-04-01T02:53:27.423Z,2.13
2023-04-01T02:55:54.247Z,1.90
2023-04-01T02:58:21.028Z,2.40
2023-04-01T03:00:47.828Z,3.17
2023-04-01T03:03:14.772Z,3.60
2023-04-01T03:05:41.574Z,2.90
2023-04-01T03:08:08.388Z,2.63
2023-04-01T03:10:35.384Z,2.87
2023-04-01T03:13:02.156Z,3.47
2023-04-01T03:15:28.945Z,3.97
2023-04-01T03:17:55.833Z,4.73
2023-04-01T03:20:22.614Z,3.23
2023-04-01T03:22:49.395Z,3.10
2023-04-01T03:25:16.491Z,3.23
2023-04-01T03:27:43.264Z,3.20
2023-04-01T03:30:10.610Z,2.50
2023-04-01T03:32:37.579Z,3.20
2023-04-01T03:35:05.524Z,2.13
2023-04-01T03:37:33.032Z,2.23
2023-04-01T03:39:59.850Z,2.37
2023-04-01T03:42:26.644Z,2.10
2023-04-01T03:44:53.514Z,1.80
2023-04-01T03:47:20.249Z,1.80
2023-04-01T03:49:47.035Z,1.60
2023-04-01T03:52:13.922Z,1.80
2023-04-01T03:54:40.861Z,1.60
2023-04-01T03:57:07.831Z,1.30
2023-04-01T03:59:34.857Z,1.60
2023-04-01T04:02:01.663Z,1.77
2023-04-01T04:04:28.781Z,1.50
2023-04-01T04:06:55.870Z,1.57
2023-04-01T04:09:22.874Z,1.40
2023-04-01T04:11:50.365Z,1.30
2023-04-01T04:14:17.297Z,1.40
2023-04-01T04:16:44.091Z,1.77
2023-04-01T04:19:10.942Z,1.57
2023-04-01T04:21:37.765Z,1.67
2023-04-01T04:24:04.863Z,1.50
2023-04-01T04:26:31.656Z,1.60
2023-04-01T04:28:58.623Z,1.67
2023-04-01T04:31:25.925Z,1.60
2023-04-01T04:33:53.362Z,2.07
2023-04-01T04:36:20.310Z,2.17
2023-04-01T04:38:47.425Z,1.83
2023-04-01T04:41:15.289Z,2.17
2023-04-01T04:43:42.114Z,2.00
2023-04-01T04:46:10.039Z,2.90
2023-04-01T04:48:36.955Z,2.40
2023-04-01T04:51:04.200Z,2.37
2023-04-01T04:53:31.245Z,2.80
2023-04-01T04:55:58.060Z,2.70
2023-04-01T04:58:24.817Z,2.73
2023-04-01T05:00:51.600Z,2.40
2023-04-01T05:03:18.439Z,2.57
2023-04-01T05:05:54.657Z,2.57
2023-04-01T05:08:21.574Z,2.70
2023-04-01T05:10:48.381Z,2.90
2023-04-01T05:13:15.120Z,3.37
2023-04-01T05:15:41.943Z,2.50
2023-04-01T05:18:08.717Z,2.97
2023-04-01T05:20:35.553Z,3.10
2023-04-01T05:23:02.593Z,2.60
2023-04-01T05:25:29.419Z,2.70
2023-04-01T05:27:56.247Z,2.77
2023-04-01T05:30:23.046Z,2.73
2023-04-01T05:32:49.970Z,2.50
2023-04-01T05:35:16.875Z,2.60
2023-04-01T05:37:43.706Z,4.73
2023-04-01T05:40:11.205Z,2.30
2023-04-01T05:42:38.450Z,2.70
2023-04-01T05:45:06.002Z,1.93
2023-04-01T05:47:32.848Z,1.97
2023-04-01T05:49:59.813Z,1.90
2023-04-01T05:52:26.652Z,2.67
2023-04-01T05:54:53.427Z,1.63
2023-04-01T05:57:20.515Z,2.10
2023-04-01T05:59:47.321Z,1.80
2023-04-01T06:02:14.169Z,1.83
2023-04-01T06:04:41.352Z,1.90
2023-04-01T06:07:15.309Z,1.53
2023-04-01T06:09:42.215Z,2.00
2023-04-01T06:12:09.053Z,1.33
2023-04-01T06:14:51.652Z,1.50
2023-04-01T06:17:29.476Z,1.50
2023-04-01T06:20:13.184Z,1.53
2023-04-01T06:22:45.960Z,1.60
2023-04-01T06:25:33.203Z,1.33
2023-04-01T06:28:08.464Z,1.43
2023-04-01T06:31:02.974Z,1.23
2023-04-01T06:33:54.196Z,1.60
2023-04-01T06:36:27.088Z,1.37
2023-04-01T06:39:19.491Z,1.10
2023-04-01T06:42:17.062Z,1.50
2023-04-01T06:45:22.441Z,1.20
2023-04-01T06:47:49.295Z,1.57
2023-04-01T06:50:28.208Z,1.17
2023-04-01T06:53:10.648Z,0.90
2023-04-01T06:55:45.086Z,0.90
2023-04-01T06:58:24.801Z,1.27
2023-04-01T07:01:03.464Z,1.17
2023-04-01T07:03:34.397Z,0.90
2023-04-01T07:06:04.188Z,0.90
2023-04-01T07:08:31.010Z,0.90
2023-04-01T07:11:07.842Z,1.23
2023-04-01T07:13:50.917Z,0.80
2023-04-01T07:16:40.096Z,0.90
2023-04-01T07:19:23.189Z,1.33
2023-04-01T07:22:06.316Z,0.80
2023-04-01T07:24:38.842Z,0.60
2023-04-01T07:27:07.061Z,1.30
2023-04-01T07:29:33.916Z,0.90
2023-04-01T07:32:16.074Z,1.07
2023-04-01T07:35:03.817Z,0.80
2023-04-01T07:37:36.508Z,0.70
2023-04-01T07:40:06.139Z,0.67
2023-04-01T07:43:02.111Z,0.80
2023-04-01T07:45:32.755Z,0.80
2023-04-01T07:48:15.638Z,0.70
2023-04-01T07:50:51.163Z,1.00
2023-04-01T07:53:37.871Z,1.23
2023-04-01T07:56:31.924Z,0.50
2023-04-01T07:59:39.760Z,0.70
2023-04-01T08:02:06.442Z,0.97
2023-04-01T08:04:47.280Z,0.80
2023-04-01T08:07:16.579Z,0.60
2023-04-01T08:09:55.348Z,0.67
2023-04-01T08:12:34.032Z,0.83
2023-04-01T08:15:07.175Z,0.87
2023-04-01T08:17:37.390Z,1.17
2023-04-01T08:20:36.419Z,0.80
2023-04-01T08:23:13.554Z,0.70
2023-04-01T08:26:06.099Z,0.60
2023-04-01T08:28:46.572Z,0.50
2023-04-01T08:31:13.977Z,0.57
2023-04-01T08:33:40.922Z,0.40
2023-04-01T08:36:18.475Z,0.50
2023-04-01T08:38:51.835Z,0.60
2023-04-01T08:41:39.948Z,0.73
2023-04-01T08:44:21.740Z,0.50
2023-04-01T08:47:06.906Z,0.60
2023-04-01T08:49:52.789Z,0.80
2023-04-01T08:53:09.971Z,0.60
2023-04-01T08:55:45.343Z,0.50
2023-04-01T08:58:48.298Z,0.50
2023-04-01T09:01:36.292Z,0.53
2023-04-01T09:04:16.193Z,0.93
2023-04-01T09:06:51.414Z,0.40
2023-04-01T09:09:38.655Z,0.53
2023-04-01T09:12:26.918Z,0.60
2023-04-01T09:15:32.079Z,0.60
2023-04-01T09:18:29.501Z,0.97
2023-04-01T09:21:17.431Z,0.70
2023-04-01T09:24:18.993Z,0.43
2023-04-01T09:26:53.038Z,0.53
2023-04-01T09:29:36.168Z,0.63
2023-04-01T09:32:06.978Z,0.63
2023-04-01T09:34:58.779Z,0.73
2023-04-01T09:37:50.604Z,0.30
2023-04-01T09:40:19.531Z,0.60
2023-04-01T09:43:19.075Z,0.70
2023-04-01T09:45:50.234Z,0.57
2023-04-01T09:48:36.791Z,0.40
2023-04-01T09:51:22.384Z,0.43
2023-04-01T09:53:49.166Z,0.60
2023-04-01T09:56:46.490Z,0.30
2023-04-01T09:59:41.264Z,0.60
2023-04-01T10:02:20.013Z,0.40
2023-04-01T10:04:49.842Z,0.50
2023-04-01T10:07:37.721Z,0.57
2023-04-01T10:10:09.057Z,0.63
2023-04-01T10:12:36.535Z,0.60
2023-04-01T10:15:29.628Z,0.50
2023-04-01T10:18:04.286Z,0.43
2023-04-01T10:21:02.228Z,0.40
2023-04-01T10:23:43.968Z,0.30
2023-04-01T10:26:22.316Z,0.30
2023-04-01T10:28:51.849Z,0.40
2023-04-01T10:31:48.981Z,0.50
2023-04-01T10:35:02.353Z,0.40
2023-04-01T10:37:47.146Z,0.30
2023-04-01T10:40:21.633Z,0.40
2023-04-01T10:43:21.249Z,0.30
2023-04-01T10:46:03.056Z,0.30
2023-04-01T10:48:51.430Z,0.40
2023-04-01T10:52:11.963Z,0.33
2023-04-01T10:55:21.999Z,0.30
2023-04-01T10:58:00.845Z,0.30
2023-04-01T11:00:40.495Z,0.30
2023-04-01T11:03:13.484Z,0.53
2023-04-01T11:06:08.862Z,1.70
2023-04-01T11:08:56.765Z,0.63
2023-04-01T11:11:53.009Z,0.77
2023-04-01T11:31:35.427Z,0.30
2023-04-01T11:34:18.223Z,0.30
2023-04-01T11:37:06.815Z,0.20
2023-04-01T11:39:58.083Z,0.43
2023-04-01T11:42:56.472Z,0.30
2023-04-01T11:45:46.723Z,0.30
2023-04-01T11:48:13.439Z,0.30
2023-04-01T11:50:56.197Z,0.20
2023-04-01T11:53:41.893Z,0.60
2023-04-01T11:56:26.973Z,0.20
2023-04-01T11:59:15.479Z,0.97
2023-04-01T12:01:55.384Z,0.30
2023-04-01T12:04:28.429Z,0.30
2023-04-01T12:07:33.567Z,0.30
2023-04-01T12:10:12.242Z,0.30
2023-04-01T12:13:05.743Z,0.30
2023-04-01T12:15:32.717Z,0.30
2023-04-01T12:18:09.732Z,0.30
2023-04-01T12:20:58.091Z,0.30
2023-04-01T12:23:48.647Z,0.27
2023-04-01T12:26:42.996Z,0.20
2023-04-01T12:29:18.692Z,0.40
2023-04-01T12:31:59.199Z,0.30
2023-04-01T12:34:49.389Z,0.47
2023-04-01T12:37:36.442Z,0.70
2023-04-01T12:40:22.144Z,0.30
2023-04-01T12:42:54.723Z,0.20
2023-04-01T12:45:35.415Z,0.23
2023-04-01T12:48:30.905Z,0.30
2023-04-01T12:51:17.693Z,0.40
2023-04-01T12:54:09.171Z,1.37
2023-04-01T12:57:04.098Z,0.67
2023-04-01T13:00:00.125Z,0.30
2023-04-01T13:02:57.578Z,0.30
2023-04-01T13:05:48.308Z,0.30
2023-04-01T13:08:27.952Z,1.37
2023-04-01T13:10:58.029Z,0.30
2023-04-01T13:13:48.007Z,0.30
2023-04-01T13:16:23.704Z,0.30
2023-04-01T13:19:17.544Z,0.30
2023-04-01T13:22:05.911Z,0.40
2023-04-01T13:24:38.247Z,0.50
2023-04-01T13:27:22.736Z,0.33
2023-04-01T13:30:03.120Z,0.30
2023-04-01T13:32:44.630Z,0.70
2023-04-01T13:35:14.757Z,0.77
2023-04-01T13:38:07.479Z,0.40
2023-04-01T13:41:01.750Z,0.30
2023-04-01T13:43:36.816Z,0.40
2023-04-01T13:46:06.167Z,0.30
2023-04-01T13:48:57.354Z,0.40
2023-04-01T13:51:24.198Z,0.50
2023-04-01T13:54:08.439Z,0.63
2023-04-01T13:57:00.872Z,0.20
2023-04-01T13:59:33.329Z,0.40
2023-04-01T14:02:21.380Z,0.47
2023-04-01T14:04:58.381Z,0.33
2023-04-01T14:07:56.292Z,0.30
2023-04-01T14:10:41.441Z,0.30
2023-04-01T14:13:28.821Z,0.20
2023-04-01T14:16:13.255Z,0.30
2023-04-01T14:19:04.323Z,0.67
2023-04-01T14:21:44.660Z,0.20
2023-04-01T14:24:38.489Z,0.20
2023-04-01T14:27:26.558Z,0.30
2023-04-01T14:29:59.464Z,0.30
2023-04-01T14:32:45.359Z,0.40
2023-04-01T14:35:44.307Z,0.30
2023-04-01T14:38:30.079Z,0.40
2023-04-01T14:41:33.761Z,0.33
2023-04-01T14:44:18.525Z,0.33
2023-04-01T14:46:47.819Z,2.30
2023-04-01T14:49:38.211Z,2.70
2023-04-01T14:52:22.938Z,4.43
2023-04-01T14:54:50.052Z,2.17
2023-04-01T14:57:19.680Z,1.33
2023-04-01T14:59:53.249Z,1.20
2023-04-01T15:02:25.375Z,0.80
2023-04-01T15:05:11.644Z,0.70
2023-04-01T15:07:44.391Z,0.43
2023-04-01T15:10:29.907Z,0.37
2023-04-01T15:13:28.381Z,0.47
2023-04-01T15:16:10.203Z,0.20
2023-04-01T15:19:04.405Z,0.43
2023-04-01T15:21:46.146Z,0.30
2023-04-01T15:24:16.116Z,1.07
2023-04-01T15:27:06.620Z,0.30
2023-04-01T15:29:51.279Z,0.30
2023-04-01T15:32:48.544Z,0.27
2023-04-01T15:35:44.937Z,0.27
2023-04-01T15:38:33.423Z,0.30
2023-04-01T15:41:13.208Z,0.30
2023-04-01T15:43:45.030Z,0.30
2023-04-01T15:46:44.243Z,1.50
2023-04-01T15:49:26.083Z,1.67
2023-04-01T15:52:11.140Z,1.33
2023-04-01T15:55:07.876Z,0.60
2023-04-01T15:57:49.231Z,0.57
2023-04-01T16:00:19.041Z,0.50
2023-04-01T16:03:13.050Z,0.40
2023-04-01T16:05:53.605Z,0.50
2023-04-01T16:08:41.744Z,0.33
2023-04-01T16:11:42.791Z,0.33
2023-04-01T16:14:15.789Z,0.50
2023-04-01T16:17:05.624Z,0.40
2023-04-01T16:19:35.306Z,0.37
2023-04-01T16:22:28.169Z,0.40
2023-04-01T16:25:07.104Z,0.70
2023-04-01T16:27:42.207Z,0.30
2023-04-01T16:30:33.768Z,0.37
2023-04-01T16:33:19.691Z,0.30
2023-04-01T16:35:55.823Z,0.30
2023-04-01T16:38:30.892Z,0.20
2023-04-01T16:41:03.607Z,0.30
2023-04-01T16:43:48.871Z,0.40
2023-04-01T16:46:37.563Z,2.50
2023-04-01T16:49:12.890Z,7.37
2023-04-01T16:52:09.394Z,8.87
2023-04-01T16:54:44.440Z,5.43
2023-04-01T16:57:11.834Z,4.40
2023-04-01T17:00:05.014Z,2.63
2023-04-01T17:02:37.562Z,2.27
2023-04-01T17:05:09.999Z,2.30
2023-04-01T17:08:03.468Z,1.40
2023-04-01T17:10:35.031Z,1.17
2023-04-01T17:13:20.699Z,1.23
2023-04-01T17:16:06.153Z,0.70
2023-04-01T17:19:20.887Z,1.10
2023-04-01T17:22:05.641Z,1.23
2023-04-01T17:24:52.829Z,1.00
2023-04-01T17:27:37.538Z,0.90
2023-04-01T17:30:04.484Z,0.70
2023-04-01T17:32:40.237Z,0.70
2023-04-01T17:35:27.734Z,2.37
2023-04-01T17:38:01.457Z,4.50
2023-04-01T17:40:46.575Z,5.20
2023-04-01T17:43:39.915Z,5.10
2023-04-01T17:46:40.836Z,3.80
2023-04-01T17:49:47.293Z,2.00
2023-04-01T17:52:23.269Z,2.10
2023-04-01T17:54:58.347Z,1.30
2023-04-01T17:57:33.981Z,1.40
2023-04-01T18:00:13.158Z,1.00
2023-04-01T18:03:05.627Z,1.40
2023-04-01T18:05:47.009Z,1.70
2023-04-01T18:08:35.225Z,1.50
2023-04-01T18:11:27.940Z,1.13
2023-04-01T18:14:19.592Z,1.40
2023-04-01T18:17:01.410Z,1.00
2023-04-01T18:19:40.947Z,0.70
2023-04-01T18:22:17.646Z,0.90
2023-04-01T18:24:56.987Z,0.73
2023-04-01T18:27:25.432Z,1.50
2023-04-01T18:29:56.305Z,2.10
2023-04-01T18:32:27.890Z,2.23
2023-04-01T18:35:20.715Z,1.53
2023-04-01T18:38:03.929Z,1.97
2023-04-01T18:40:39.246Z,2.17
2023-04-01T18:43:31.282Z,1.37
2023-04-01T18:46:03.237Z,1.13
2023-04-01T18:48:51.159Z,1.37
2023-04-01T18:51:44.748Z,1.13
2023-04-01T18:54:20.874Z,0.50
2023-04-01T18:56:47.804Z,0.50
2023-04-01T18:59:31.161Z,0.50
2023-04-01T19:02:40.616Z,0.50
2023-04-01T19:05:31.788Z,0.50
2023-04-01T19:08:29.499Z,0.40
2023-04-01T19:11:11.914Z,0.50
2023-04-01T19:14:07.109Z,0.40
2023-04-01T19:16:51.622Z,0.30
2023-04-01T19:19:37.349Z,0.30
2023-04-01T19:22:42.169Z,0.30
2023-04-01T19:25:18.061Z,0.67
2023-04-01T19:27:52.955Z,0.40
2023-04-01T19:30:37.949Z,0.40
2023-04-01T19:33:28.942Z,0.60
2023-04-01T19:36:08.128Z,0.50
2023-04-01T19:38:43.192Z,0.50
2023-04-01T19:41:28.909Z,0.40
2023-04-01T19:44:20.002Z,0.50
2023-04-01T19:46:55.694Z,0.87
2023-04-01T19:49:28.455Z,0.80
2023-04-01T19:52:20.791Z,0.50
2023-04-01T19:54:50.978Z,0.90
2023-04-01T19:57:26.828Z,0.60
2023-04-01T19:59:59.517Z,0.70
2023-04-01T20:02:41.421Z,0.50
2023-04-01T20:05:29.393Z,0.50
2023-04-01T20:08:01.334Z,0.40
2023-04-01T20:10:36.534Z,0.50
2023-04-01T20:13:10.008Z,0.50
2023-04-01T20:15:38.908Z,0.70
2023-04-01T20:18:13.855Z,0.40
2023-04-01T20:20:40.705Z,0.60
2023-04-01T20:23:36.566Z,0.50
2023-04-01T20:26:14.179Z,0.40
2023-04-01T20:28:45.319Z,0.40
2023-04-01T20:31:31.257Z,0.60
2023-04-01T20:34:27.957Z,0.50
2023-04-01T20:37:32.386Z,0.47
2023-04-01T20:40:28.400Z,0.50
2023-04-01T20:43:20.304Z,0.63
2023-04-01T20:45:56.119Z,0.50
2023-04-01T20:48:47.075Z,0.53
2023-04-01T20:51:15.692Z,0.50
2023-04-01T20:54:20.091Z,0.50
2023-04-01T20:57:05.846Z,0.97
2023-04-01T21:00:01.634Z,1.73
2023-04-01T21:02:37.180Z,0.60
2023-04-01T21:05:40.949Z,0.67
2023-04-01T21:08:42.941Z,0.53
2023-04-01T21:11:46.856Z,0.50
2023-04-01T21:14:46.013Z,0.60
2023-04-01T21:17:15.749Z,2.40
2023-04-01T21:20:13.143Z,1.03
2023-04-01T21:23:10.289Z,1.40
2023-04-01T21:25:58.114Z,0.70
2023-04-01T21:28:28.851Z,0.70
2023-04-01T21:31:09.585Z,0.83
2023-04-01T21:33:46.030Z,1.27
2023-04-01T21:36:36.389Z,2.07
2023-04-01T21:39:11.948Z,2.30
2023-04-01T21:41:50.771Z,1.67
2023-04-01T21:44:19.877Z,1.40
2023-04-01T21:46:56.851Z,1.27
2023-04-01T21:49:53.843Z,2.13
2023-04-01T21:52:53.006Z,0.60
2023-04-01T21:55:40.063Z,0.80
2023-04-01T21:58:09.849Z,0.60
2023-04-01T22:00:40.593Z,0.60
2023-04-01T22:03:30.294Z,1.40
2023-04-01T22:06:09.592Z,0.70
2023-04-01T22:08:58.020Z,0.80
2023-04-01T22:11:33.689Z,0.67
2023-04-01T22:14:09.309Z,1.33
2023-04-01T22:16:55.070Z,1.20
2023-04-01T22:19:43.877Z,0.70
2023-04-01T22:22:32.207Z,0.57
2023-04-01T22:25:23.810Z,0.50
2023-04-01T22:27:57.009Z,0.60
2023-04-01T22:30:40.402Z,0.60
2023-04-01T22:33:18.166Z,0.60
2023-04-01T22:36:13.564Z,0.87
2023-04-01T22:39:01.472Z,0.57
2023-04-01T22:41:40.094Z,0.57
2023-04-01T22:44:07.033Z,0.63
2023-04-01T22:46:33.768Z,0.77
2023-04-01T22:49:23.483Z,0.40
2023-04-01T22:52:12.570Z,0.57
2023-04-01T22:54:45.043Z,0.60
2023-04-01T22:57:14.002Z,0.60
2023-04-01T22:59:47.701Z,0.50
2023-04-01T23:02:20.684Z,0.40
2023-04-01T23:04:50.922Z,0.60
2023-04-01T23:07:55.084Z,0.53
2023-04-01T23:10:30.761Z,1.23
2023-04-01T23:12:59.556Z,0.50
2023-04-01T23:15:27.189Z,0.80
2023-04-01T23:18:15.223Z,0.60
2023-04-01T23:20:49.744Z,0.50
2023-04-01T23:23:33.618Z,1.13
2023-04-01T23:26:08.653Z,0.40
2023-04-01T23:28:55.140Z,0.60
2023-04-01T23:31:40.657Z,0.50
2023-04-01T23:34:13.656Z,0.60
2023-04-01T23:36:45.560Z,0.60
2023-04-01T23:39:38.089Z,0.60
2023-04-01T23:42:13.781Z,0.70
2023-04-01T23:44:40.754Z,0.60
2023-04-01T23:47:10.013Z,0.70
2023-04-01T23:49:57.920Z,0.80
2023-04-01T23:52:29.062Z,0.70
2023-04-01T23:54:58.361Z,1.10
2023-04-01T23:57:31.361Z,0.60
